Time;durP1;ratioP1;P1;durP2;ratioP2;P2;SDS_P1;SDS_P2;PMS_P1;PMS_P2;Temp;Humidity;BMP_temperature;BMP_pressure;BME280_temperature;BME280_humidity;BME280_pressure;Samples;Min_cycle;Max_cycle;Signal;HPM_P1;HPM_P2
2023/04/02 00:00:10;;;;;;;1.48;0.40;;;9.00;79.70;;;;;;4954547;28;20050;-62
2023/04/02 00:02:52;;;;;;;0.65;0.22;;;9.00;79.90;;;;;;4941811;28;20074;-61
2023/04/02 00:05:30;;;;;;;1.17;0.40;;;9.00;80.00;;;;;;4954138;28;20039;-61
2023/04/02 00:08:19;;;;;;;0.93;0.40;;;9.00;79.90;;;;;;4952300;28;20035;-62
2023/04/02 00:10:57;;;;;;;0.50;0.32;;;9.00;80.30;;;;;;4955221;28;20043;-62
2023/04/02 00:13:37;;;;;;;2.25;0.32;;;9.00;79.90;;;;;;4957393;28;20141;-62
2023/04/02 00:16:07;;;;;;;1.08;0.40;;;9.00;80.10;;;;;;4951154;28;20775;-62
2023/04/02 00:18:38;;;;;;;0.35;0.35;;;9.00;80.00;;;;;;4956516;28;20502;-62
2023/04/02 00:21:13;;;;;;;1.25;0.30;;;9.00;80.00;;;;;;4959342;28;20495;-62
2023/04/02 00:23:41;;;;;;;1.92;0.50;;;9.10;80.30;;;;;;4960469;28;20721;-61
2023/04/02 00:26:22;;;;;;;1.65;0.68;;;9.10;80.10;;;;;;4959520;28;20035;-61
2023/04/02 00:28:50;;;;;;;0.38;0.38;;;9.10;80.40;;;;;;4960133;28;20101;-61
2023/04/02 00:31:18;;;;;;;0.57;0.40;;;9.10;80.10;;;;;;4960350;28;20410;-61
2023/04/02 00:33:44;;;;;;;0.90;0.30;;;9.10;80.10;;;;;;4957075;28;20097;-61
2023/04/02 00:36:10;;;;;;;1.13;0.38;;;9.10;80.00;;;;;;4956238;28;20027;-62
2023/04/02 00:38:37;;;;;;;0.50;0.40;;;9.10;80.00;;;;;;4952280;28;20070;-62
2023/04/02 00:41:05;;;;;;;1.02;0.40;;;9.10;79.90;;;;;;4952923;28;20038;-62
2023/04/02 00:43:35;;;;;;;1.30;0.40;;;9.10;79.80;;;;;;4952476;28;20171;-62
2023/04/02 00:46:12;;;;;;;2.08;0.40;;;9.10;79.90;;;;;;4953230;28;20138;-62
2023/04/02 00:48:53;;;;;;;0.50;0.30;;;9.10;79.80;;;;;;4956438;28;20129;-62
2023/04/02 00:51:31;;;;;;;0.95;0.40;;;9.10;79.80;;;;;;4957857;28;20038;-62
2023/04/02 00:53:59;;;;;;;0.50;0.30;;;9.10;79.80;;;;;;4958034;28;20086;-61
2023/04/02 00:56:31;;;;;;;0.70;0.50;;;9.00;79.70;;;;;;4954979;28;20402;-61
2023/04/02 00:58:57;;;;;;;1.23;0.38;;;9.00;79.80;;;;;;4956552;28;20027;-61
2023/04/02 01:01:27;;;;;;;0.38;0.25;;;9.00;79.70;;;;;;4965395;28;20057;-62
2023/04/02 01:03:57;;;;;;;2.25;0.50;;;9.00;79.80;;;;;;4957763;28;20036;-62
2023/04/02 01:06:28;;;;;;;0.50;0.30;;;9.00;79.80;;;;;;4954211;28;20387;-62
2023/04/02 01:08:57;;;;;;;0.77;0.30;;;9.00;79.80;;;;;;4954658;28;20050;-61
2023/04/02 01:11:25;;;;;;;1.52;0.40;;;8.90;79.80;;;;;;4955471;28;20525;-60
2023/04/02 01:14:06;;;;;;;0.60;0.30;;;8.90;79.70;;;;;;4953100;28;20043;-61
2023/04/02 01:16:41;;;;;;;1.27;0.30;;;8.90;80.00;;;;;;4954092;28;20438;-62
2023/04/02 01:19:26;;;;;;;;;;;8.90;79.80;;;;;;4952915;28;20035;-62
2023/04/02 01:22:05;;;;;;;1.85;0.40;;;8.90;80.10;;;;;;4958496;28;19961;-62
2023/04/02 01:24:33;;;;;;;2.53;0.40;;;8.90;79.70;;;;;;4958355;28;20035;-62
2023/04/02 01:27:20;;;;;;;0.98;0.45;;;8.80;79.80;;;;;;4958990;28;20182;-62
2023/04/02 01:29:52;;;;;;;1.98;0.43;;;8.90;80.40;;;;;;4960147;28;20043;-61
2023/04/02 01:32:20;;;;;;;0.85;0.43;;;8.80;80.10;;;;;;4958971;28;20447;-61
2023/04/02 01:34:48;;;;;;;0.80;0.40;;;8.80;80.20;;;;;;4952289;28;20035;-61
2023/04/02 01:37:23;;;;;;;1.13;0.30;;;8.80;80.20;;;;;;4952845;28;20035;-61
2023/04/02 01:40:07;;;;;;;1.90;0.50;;;8.80;80.30;;;;;;4955131;28;20085;-62
2023/04/02 01:42:50;;;;;;;0.83;0.30;;;8.80;80.60;;;;;;4952253;28;20054;-62
2023/04/02 01:45:18;;;;;;;0.40;0.35;;;8.80;81.20;;;;;;4954978;28;20464;-62
2023/04/02 01:47:45;;;;;;;0.77;0.30;;;8.80;80.30;;;;;;4955661;28;20118;-61
2023/04/02 01:50:16;;;;;;;1.88;0.50;;;8.70;80.30;;;;;;4954030;28;20054;-62
2023/04/02 01:52:44;;;;;;;1.35;0.40;;;8.70;80.30;;;;;;4954373;28;20635;-62
2023/04/02 01:55:13;;;;;;;1.05;0.40;;;8.70;80.40;;;;;;4953859;28;20061;-62
2023/04/02 01:57:42;;;;;;;3.50;0.43;;;8.70;80.50;;;;;;4955562;28;20038;-60
2023/04/02 02:00:12;;;;;;;0.98;0.30;;;8.70;80.50;;;;;;4953472;28;20035;-60
2023/04/02 02:02:39;;;;;;;0.93;0.32;;;8.70;80.40;;;;;;4954819;28;20130;-62
2023/04/02 02:05:11;;;;;;;1.50;0.28;;;8.70;80.40;;;;;;4951878;28;20051;-62
2023/04/02 02:07:37;;;;;;;0.38;0.35;;;8.60;80.40;;;;;;4954580;28;20035;-61
2023/04/02 02:10:03;;;;;;;0.82;0.38;;;8.60;80.40;;;;;;4956345;28;20031;-62
2023/04/02 02:12:28;;;;;;;0.75;0.30;;;8.60;80.50;;;;;;4949818;28;20090;-62
2023/04/02 02:14:54;;;;;;;0.80;0.50;;;8.60;80.40;;;;;;4951416;28;20054;-62
2023/04/02 02:17:26;;;;;;;0.85;0.30;;;8.60;80.50;;;;;;4955389;28;20028;-62
2023/04/02 02:19:56;;;;;;;0.55;0.30;;;8.60;80.50;;;;;;4953570;28;20049;-62
2023/04/02 02:22:27;;;;;;;0.73;0.40;;;8.60;80.50;;;;;;4958467;28;20041;-61
2023/04/02 02:24:54;;;;;;;2.00;0.30;;;8.60;80.50;;;;;;4958619;28;20039;-62
2023/04/02 02:27:23;;;;;;;0.82;0.30;;;8.60;80.40;;;;;;4957843;28;20035;-62
2023/04/02 02:30:09;;;;;;;1.13;0.30;;;8.60;80.30;;;;;;4959278;28;20062;-62
2023/04/02 02:32:41;;;;;;;0.30;0.25;;;8.60;80.30;;;;;;4959621;28;20506;-62
2023/04/02 02:35:17;;;;;;;1.95;0.40;;;8.50;80.20;;;;;;4954393;28;20133;-61
2023/04/02 02:37:47;;;;;;;0.70;0.40;;;8.60;80.30;;;;;;4956290;28;20046;-62
2023/04/02 02:40:23;;;;;;;0.40;0.30;;;8.50;80.20;;;;;;4956123;28;20541;-62
2023/04/02 02:42:58;;;;;;;0.38;0.30;;;8.50;80.30;;;;;;4955044;28;20410;-62
2023/04/02 02:45:27;;;;;;;0.30;0.30;;;8.50;80.30;;;;;;4959249;28;20105;-62
2023/04/02 02:47:54;;;;;;;0.88;0.35;;;8.50;80.30;;;;;;4955804;28;20123;-62
2023/04/02 02:50:24;;;;;;;0.40;0.20;;;8.50;80.20;;;;;;4956838;28;20522;-62
2023/04/02 02:52:57;;;;;;;1.13;0.30;;;8.50;80.30;;;;;;4955712;28;20113;-62
2023/04/02 02:55:35;;;;;;;1.35;0.32;;;8.40;80.20;;;;;;4958051;28;20053;-62
2023/04/02 02:58:06;;;;;;;1.00;0.30;;;8.40;80.40;;;;;;4958615;28;20039;-62
2023/04/02 03:00:34;;;;;;;0.50;0.30;;;8.40;80.40;;;;;;4956920;28;20069;-61
2023/04/02 03:03:04;;;;;;;1.45;0.43;;;8.40;80.30;;;;;;4959095;28;20039;-62
2023/04/02 03:05:30;;;;;;;0.45;0.40;;;8.40;80.40;;;;;;4957931;28;20041;-61
2023/04/02 03:07:57;;;;;;;0.55;0.30;;;8.40;80.40;;;;;;4957150;28;20073;-62
2023/04/02 03:10:47;;;;;;;0.73;0.30;;;8.40;80.50;;;;;;4956676;28;20042;-62
2023/04/02 03:13:24;;;;;;;0.43;0.20;;;8.30;80.60;;;;;;4956049;28;20041;-60
2023/04/02 03:15:50;;;;;;;1.02;0.40;;;8.40;80.50;;;;;;4957212;28;20354;-61
2023/04/02 03:18:59;;;;;;;1.15;0.40;;;8.30;80.40;;;;;;4953166;28;20070;-61
2023/04/02 03:21:33;;;;;;;0.40;0.30;;;8.30;80.70;;;;;;4954484;28;20031;-62
2023/04/02 03:24:03;;;;;;;1.17;0.35;;;8.30;80.50;;;;;;4954774;28;20617;-61
2023/04/02 03:26:33;;;;;;;0.35;0.30;;;8.30;80.60;;;;;;4957568;28;20407;-61
2023/04/02 03:29:25;;;;;;;0.90;0.30;;;8.20;80.50;;;;;;4962173;28;20039;-62
2023/04/02 03:32:19;;;;;;;1.25;0.32;;;8.20;80.60;;;;;;4956037;28;20028;-62
2023/04/02 03:35:10;;;;;;;0.70;0.30;;;8.30;80.40;;;;;;4949802;28;20043;-62
2023/04/02 03:37:44;;;;;;;0.45;0.20;;;8.20;80.20;;;;;;4953369;28;20031;-61
2023/04/02 03:40:22;;;;;;;0.82;0.40;;;8.20;80.30;;;;;;4955223;28;20041;-62
2023/04/02 03:42:59;;;;;;;0.63;0.43;;;8.30;80.50;;;;;;4955422;28;20097;-61
2023/04/02 03:45:35;;;;;;;1.95;0.40;;;8.30;80.50;;;;;;4957056;28;22200;-61
2023/04/02 03:48:13;;;;;;;1.05;0.40;;;8.30;80.40;;;;;;4955665;28;20038;-62
2023/04/02 03:50:49;;;;;;;0.80;0.43;;;8.30;80.40;;;;;;4957087;28;20049;-62
2023/04/02 03:53:15;;;;;;;1.98;0.60;;;8.30;80.20;;;;;;4958057;28;20031;-61
2023/04/02 03:55:41;;;;;;;1.45;0.60;;;8.30;80.20;;;;;;4954753;28;20695;-61
2023/04/02 03:58:28;;;;;;;0.80;0.50;;;8.30;80.10;;;;;;4954538;28;20055;-62
2023/04/02 04:00:57;;;;;;;;;;;8.30;80.10;;;;;;4954352;28;20030;-62
2023/04/02 04:03:45;;;;;;;0.68;0.50;;;8.30;80.20;;;;;;4956598;28;19922;-62
2023/04/02 04:06:26;;;;;;;1.73;0.60;;;8.30;80.00;;;;;;4954861;28;20118;-62
2023/04/02 04:09:09;;;;;;;0.50;0.45;;;8.20;79.70;;;;;;4953658;28;20043;-62
2023/04/02 04:11:44;;;;;;;0.75;0.40;;;8.20;79.90;;;;;;4938614;28;20046;-61
2023/04/02 04:14:31;;;;;;;1.75;0.80;;;8.20;79.80;;;;;;4954443;28;20039;-62
2023/04/02 04:17:22;;;;;;;1.65;0.73;;;8.10;79.90;;;;;;4952998;28;20109;-61
2023/04/02 04:19:57;;;;;;;1.50;0.50;;;8.10;79.80;;;;;;4955486;28;20462;-61
2023/04/02 04:22:32;;;;;;;0.60;0.60;;;8.00;79.80;;;;;;4955017;28;20089;-62
2023/04/02 04:25:16;;;;;;;1.05;0.50;;;8.00;80.00;;;;;;4954189;28;20092;-62
2023/04/02 04:28:15;;;;;;;0.93;0.30;;;7.90;80.00;;;;;;4954898;28;20146;-61
2023/04/02 04:31:07;;;;;;;1.60;0.60;;;7.90;80.20;;;;;;4948425;28;21148;-62
2023/04/02 04:33:40;;;;;;;1.73;0.68;;;7.90;80.10;;;;;;4957720;28;20035;-62
2023/04/02 04:36:27;;;;;;;0.95;0.85;;;7.90;80.00;;;;;;4952098;28;20507;-62
2023/04/02 04:38:58;;;;;;;1.40;0.70;;;7.90;80.00;;;;;;4953677;28;20047;-61
2023/04/02 04:41:35;;;;;;;0.52;0.40;;;7.90;80.00;;;;;;4953962;28;20045;-62
2023/04/02 04:44:13;;;;;;;0.88;0.60;;;7.90;80.40;;;;;;4952891;28;20518;-62
2023/04/02 04:46:47;;;;;;;2.20;0.80;;;7.80;80.30;;;;;;4952281;28;20650;-62
2023/04/02 04:49:21;;;;;;;2.30;1.92;;;7.80;80.30;;;;;;4954514;28;20058;-62
2023/04/02 04:51:52;;;;;;;2.65;2.45;;;7.80;80.60;;;;;;4953086;28;20043;-62
2023/04/02 04:54:19;;;;;;;1.25;1.05;;;7.80;80.80;;;;;;4953036;28;20751;-61
2023/04/02 04:56:54;;;;;;;1.83;1.10;;;7.80;81.70;;;;;;4952804;28;20035;-62
2023/04/02 04:59:26;;;;;;;1.10;1.00;;;7.80;81.10;;;;;;4954376;28;20038;-62
2023/04/02 05:01:58;;;;;;;1.90;0.77;;;7.80;81.10;;;;;;4953816;28;20035;-61
2023/04/02 05:04:33;;;;;;;2.10;1.50;;;7.80;81.20;;;;;;4957805;28;20459;-62
2023/04/02 05:07:28;;;;;;;1.52;0.98;;;7.80;81.30;;;;;;4952331;28;20041;-62
2023/04/02 05:10:00;;;;;;;2.23;0.80;;;7.80;81.30;;;;;;4950104;28;20629;-62
2023/04/02 05:12:37;;;;;;;0.98;0.63;;;7.80;81.20;;;;;;4954476;28;20054;-62
2023/04/02 05:15:41;;;;;;;0.50;0.50;;;7.80;81.50;;;;;;4955426;28;20142;-61
2023/04/02 05:18:18;;;;;;;1.02;0.77;;;7.80;81.90;;;;;;4954871;28;20042;-62
2023/04/02 05:21:03;;;;;;;1.25;0.80;;;7.80;81.80;;;;;;4951819;28;20051;-61
2023/04/02 05:23:33;;;;;;;;;;;7.90;82.00;;;;;;4949485;28;20043;-61
2023/04/02 05:26:07;;;;;;;1.45;1.00;;;7.90;82.20;;;;;;4954055;28;19954;-62
2023/04/02 05:28:58;;;;;;;2.42;1.10;;;7.90;81.30;;;;;;4954099;28;20507;-61
2023/04/02 05:31:46;;;;;;;1.38;1.08;;;7.90;82.20;;;;;;4950737;28;20058;-62
2023/04/02 05:34:13;;;;;;;1.08;0.93;;;7.90;81.90;;;;;;4926065;28;20042;-62
2023/04/02 05:36:39;;;;;;;1.63;0.80;;;7.90;82.00;;;;;;4954718;28;20047;-62
2023/04/02 05:39:08;;;;;;;0.88;0.80;;;8.00;82.10;;;;;;4954894;28;20431;-62
2023/04/02 05:41:44;;;;;;;0.88;0.70;;;7.90;82.40;;;;;;4949894;28;20034;-62
2023/04/02 05:44:10;;;;;;;1.35;0.68;;;8.00;82.70;;;;;;4952139;28;20049;-60
2023/04/02 05:46:44;;;;;;;2.50;0.70;;;8.00;82.60;;;;;;4954494;28;20039;-61
2023/04/02 05:49:23;;;;;;;0.80;0.70;;;8.10;82.80;;;;;;4959039;28;20387;-62
2023/04/02 05:51:52;;;;;;;0.77;0.73;;;8.10;82.80;;;;;;4958417;28;20054;-62
2023/04/02 05:54:27;;;;;;;1.15;0.63;;;8.20;82.60;;;;;;4958657;28;20043;-62
2023/04/02 05:56:59;;;;;;;1.50;0.80;;;8.20;82.60;;;;;;4956959;28;20067;-62
2023/04/02 05:59:30;;;;;;;1.55;1.00;;;8.30;82.40;;;;;;4958211;28;20035;-62
2023/04/02 06:02:35;;;;;;;1.67;1.02;;;8.30;82.40;;;;;;4957130;28;20038;-62
2023/04/02 06:05:03;;;;;;;1.35;1.02;;;8.40;82.90;;;;;;4959476;28;20263;-62
2023/04/02 06:07:57;;;;;;;1.55;0.80;;;8.40;82.50;;;;;;4958608;28;20070;-62
2023/04/02 06:10:30;;;;;;;1.73;1.35;;;8.40;82.60;;;;;;4962421;28;20043;-61
2023/04/02 06:13:02;;;;;;;0.98;0.93;;;8.40;82.60;;;;;;4957073;28;20158;-62
2023/04/02 06:15:29;;;;;;;1.55;1.45;;;8.50;82.40;;;;;;4955020;28;20091;-62
2023/04/02 06:18:12;;;;;;;2.28;1.70;;;8.50;82.40;;;;;;4956352;28;20038;-62
2023/04/02 06:20:38;;;;;;;1.50;1.25;;;8.60;82.80;;;;;;4960629;28;20409;-63
2023/04/02 06:23:41;;;;;;;1.20;1.08;;;8.60;82.40;;;;;;4956728;28;20035;-62
2023/04/02 06:26:09;;;;;;;2.58;0.77;;;8.60;83.10;;;;;;4878343;29;20325;-62
2023/04/02 06:29:03;;;;;;;1.20;1.00;;;8.60;82.60;;;;;;4940693;28;20122;-62
2023/04/02 06:31:37;;;;;;;1.70;0.90;;;8.70;82.90;;;;;;4956145;28;20038;-62
2023/04/02 06:34:06;;;;;;;1.90;0.80;;;8.70;82.70;;;;;;4956553;28;20081;-62
2023/04/02 06:36:32;;;;;;;1.15;1.05;;;8.70;82.60;;;;;;4958281;28;20575;-61
2023/04/02 06:39:14;;;;;;;1.42;1.10;;;8.80;82.60;;;;;;4957619;28;20492;-62
2023/04/02 06:41:39;;;;;;;0.80;0.70;;;8.80;82.90;;;;;;4958029;28;20463;-61
2023/04/02 06:44:18;;;;;;;0.98;0.70;;;8.80;82.70;;;;;;4955229;28;20031;-62
2023/04/02 06:46:53;;;;;;;1.90;1.00;;;8.80;83.00;;;;;;4946092;28;20043;-62
2023/04/02 06:49:34;;;;;;;1.23;0.85;;;8.90;83.80;;;;;;4952395;28;20478;-62
2023/04/02 06:52:02;;;;;;;1.00;0.80;;;8.90;83.10;;;;;;4937048;28;20051;-63
2023/04/02 06:54:28;;;;;;;1.27;0.90;;;9.00;83.40;;;;;;4940210;28;20089;-63
2023/04/02 06:56:55;;;;;;;2.85;1.20;;;9.00;82.90;;;;;;4954790;28;20059;-62
2023/04/02 06:59:21;;;;;;;2.10;1.20;;;9.10;82.90;;;;;;4951676;28;20027;-62
2023/04/02 07:01:57;;;;;;;2.00;1.30;;;9.10;83.10;;;;;;4949159;28;21604;-62
2023/04/02 07:04:23;;;;;;;2.13;1.25;;;9.10;83.20;;;;;;4950580;28;20121;-62
2023/04/02 07:06:49;;;;;;;2.00;1.33;;;9.20;83.10;;;;;;4957402;28;20058;-62
2023/04/02 07:09:15;;;;;;;2.95;1.20;;;9.30;82.90;;;;;;4947378;28;20039;-62
2023/04/02 07:11:41;;;;;;;1.88;1.27;;;9.30;82.90;;;;;;4952791;28;20035;-62
2023/04/02 07:14:10;;;;;;;1.33;1.13;;;9.40;82.70;;;;;;4956316;28;20031;-62
2023/04/02 07:16:36;;;;;;;2.95;1.40;;;9.40;82.60;;;;;;4952941;28;20038;-62
2023/04/02 07:19:03;;;;;;;1.45;1.20;;;9.50;82.60;;;;;;4956548;28;20031;-62
2023/04/02 07:21:29;;;;;;;1.58;1.10;;;9.50;82.60;;;;;;4956008;28;20049;-62
2023/04/02 07:23:54;;;;;;;1.83;1.13;;;9.60;82.60;;;;;;4958664;28;20044;-62
2023/04/02 07:26:24;;;;;;;1.13;1.00;;;9.60;82.60;;;;;;4953746;28;20499;-62
2023/04/02 07:28:50;;;;;;;2.95;1.30;;;9.60;83.50;;;;;;4958698;28;20047;-62
2023/04/02 07:31:23;;;;;;;1.95;1.15;;;9.60;82.60;;;;;;4959248;28;20113;-62
2023/04/02 07:33:49;;;;;;;1.88;1.17;;;9.70;82.60;;;;;;4957847;28;20125;-62
2023/04/02 07:36:20;;;;;;;1.80;1.05;;;9.70;82.40;;;;;;4956226;28;20038;-62
2023/04/02 07:38:46;;;;;;;2.58;1.50;;;9.80;82.20;;;;;;4955759;28;20061;-62
2023/04/02 07:41:12;;;;;;;2.30;1.20;;;9.90;82.20;;;;;;4957601;28;20031;-62
2023/04/02 07:43:39;;;;;;;3.15;1.60;;;9.80;82.00;;;;;;4955715;28;20113;-62
2023/04/02 07:46:05;;;;;;;3.80;1.88;;;10.00;82.00;;;;;;4953490;28;20664;-63
2023/04/02 07:48:31;;;;;;;1.40;1.25;;;10.00;81.90;;;;;;4954957;28;20422;-62
2023/04/02 07:50:57;;;;;;;1.83;1.40;;;10.00;81.90;;;;;;4956367;28;20042;-63
2023/04/02 07:53:36;;;;;;;2.08;1.23;;;10.10;82.00;;;;;;4956490;28;20730;-62
2023/04/02 07:56:04;;;;;;;1.35;1.17;;;10.10;82.10;;;;;;4955709;28;20484;-62
2023/04/02 07:58:30;;;;;;;1.88;1.08;;;10.20;82.10;;;;;;4956697;28;20042;-63
2023/04/02 08:00:56;;;;;;;1.58;1.00;;;10.20;81.90;;;;;;4953353;28;20125;-63
2023/04/02 08:03:22;;;;;;;1.35;1.10;;;10.30;81.70;;;;;;4955782;28;20134;-63
2023/04/02 08:05:56;;;;;;;3.25;0.82;;;10.30;81.50;;;;;;4955493;28;20410;-62
2023/04/02 08:08:23;;;;;;;0.82;0.82;;;10.40;81.30;;;;;;4950601;28;20043;-63
2023/04/02 08:10:49;;;;;;;1.10;0.80;;;10.40;81.30;;;;;;4952485;28;20401;-63
2023/04/02 08:13:16;;;;;;;1.83;0.85;;;10.50;81.10;;;;;;4949212;28;20118;-63
2023/04/02 08:15:42;;;;;;;1.92;1.10;;;10.50;80.70;;;;;;4953504;28;20422;-63
2023/04/02 08:18:09;;;;;;;1.27;0.77;;;10.60;80.60;;;;;;4959603;28;20031;-63
2023/04/02 08:20:34;;;;;;;2.72;0.90;;;10.60;80.60;;;;;;4959063;28;20027;-64
2023/04/02 08:23:00;;;;;;;2.05;0.70;;;10.70;80.50;;;;;;4955430;28;20076;-63
2023/04/02 08:25:26;;;;;;;1.45;0.90;;;10.70;80.20;;;;;;4955534;28;20050;-62
2023/04/02 08:27:52;;;;;;;2.17;1.00;;;10.80;80.00;;;;;;4953338;28;20129;-64
2023/04/02 08:30:18;;;;;;;1.80;0.70;;;10.80;79.90;;;;;;4955436;28;20123;-63
2023/04/02 08:32:43;;;;;;;2.63;1.33;;;10.80;79.30;;;;;;4955335;28;20129;-62
2023/04/02 08:35:11;;;;;;;0.80;0.80;;;10.90;78.90;;;;;;4954645;28;20047;-63
2023/04/02 08:37:37;;;;;;;1.58;1.00;;;10.90;78.70;;;;;;4953881;28;20035;-63
2023/04/02 08:40:04;;;;;;;1.75;0.80;;;10.90;78.70;;;;;;4954815;28;20462;-63
2023/04/02 08:42:39;;;;;;;1.65;0.80;;;10.90;78.90;;;;;;4953178;28;20066;-62
2023/04/02 08:45:06;;;;;;;1.70;0.70;;;11.00;78.40;;;;;;4955533;28;20054;-63
2023/04/02 08:47:36;;;;;;;1.08;0.80;;;11.00;78.60;;;;;;4951127;28;20407;-63
2023/04/02 08:50:18;;;;;;;1.75;0.73;;;11.00;78.40;;;;;;4953560;28;20096;-63
2023/04/02 08:52:44;;;;;;;1.58;0.60;;;11.10;77.70;;;;;;4952347;28;20435;-60
2023/04/02 08:55:21;;;;;;;1.27;0.90;;;11.10;78.10;;;;;;4955012;28;20094;-62
2023/04/02 08:57:59;;;;;;;1.05;0.70;;;11.20;78.20;;;;;;4953409;28;20134;-64
2023/04/02 09:00:40;;;;;;;1.15;0.80;;;11.20;77.40;;;;;;4949916;28;20043;-63
2023/04/02 09:03:30;;;;;;;1.77;1.00;;;11.30;77.70;;;;;;4955075;28;20063;-62
2023/04/02 09:05:58;;;;;;;2.28;1.00;;;11.30;77.70;;;;;;4953626;28;20699;-64
2023/04/02 09:08:25;;;;;;;4.20;2.35;;;11.40;77.90;;;;;;4950068;28;20053;-61
2023/04/02 09:11:00;;;;;;;14.77;7.07;;;11.40;78.00;;;;;;4957579;28;20069;-62
2023/04/02 09:13:28;;;;;;;3.88;2.33;;;11.50;78.00;;;;;;4956939;28;20069;-63
2023/04/02 09:16:06;;;;;;;2.13;1.42;;;11.50;77.70;;;;;;4954562;28;20133;-62
2023/04/02 09:18:32;;;;;;;2.80;2.28;;;11.60;77.30;;;;;;4952498;28;20132;-61
2023/04/02 09:21:02;;;;;;;2.97;1.75;;;11.70;77.20;;;;;;4950526;28;20046;-62
2023/04/02 09:23:28;;;;;;;1.80;0.90;;;11.70;77.00;;;;;;4953643;28;20038;-62
2023/04/02 09:25:54;;;;;;;0.93;0.77;;;11.70;75.30;;;;;;4953325;28;20038;-62
2023/04/02 09:28:22;;;;;;;9.85;3.90;;;11.70;75.40;;;;;;4936686;28;20065;-62
2023/04/02 09:30:56;;;;;;;4.90;2.95;;;11.70;75.30;;;;;;4956183;28;20474;-61
2023/04/02 09:33:43;;;;;;;1.38;0.90;;;11.80;75.50;;;;;;4957798;28;20093;-61
2023/04/02 09:36:35;;;;;;;1.92;1.77;;;11.80;74.60;;;;;;4956094;28;20142;-61
2023/04/02 09:39:05;;;;;;;1.10;0.85;;;11.90;74.60;;;;;;4958469;28;20035;-62
2023/04/02 09:41:33;;;;;;;1.77;0.90;;;11.90;75.10;;;;;;4963670;28;20568;-62
2023/04/02 09:44:20;;;;;;;0.52;0.50;;;11.90;74.90;;;;;;4963463;28;20061;-61
2023/04/02 09:46:53;;;;;;;1.00;0.90;;;12.00;74.10;;;;;;4960864;28;20035;-62
2023/04/02 09:49:23;;;;;;;0.82;0.50;;;12.00;75.10;;;;;;4963218;28;20050;-62
2023/04/02 09:52:11;;;;;;;1.02;0.43;;;12.10;73.90;;;;;;4962683;28;20034;-62
2023/04/02 09:54:40;;;;;;;1.08;0.40;;;12.20;73.50;;;;;;4955559;28;20157;-62
2023/04/02 09:57:16;;;;;;;0.63;0.63;;;12.20;74.20;;;;;;4962806;28;20035;-61
2023/04/02 09:59:41;;;;;;;0.75;0.30;;;12.30;74.30;;;;;;4963467;28;20693;-62
2023/04/02 10:02:23;;;;;;;0.60;0.50;;;12.40;73.90;;;;;;4963427;28;20035;-62
2023/04/02 10:04:48;;;;;;;0.82;0.82;;;12.50;71.90;;;;;;4962421;28;20121;-62
2023/04/02 10:07:33;;;;;;;1.30;1.23;;;12.60;73.20;;;;;;4962657;28;20142;-62
2023/04/02 10:10:17;;;;;;;0.40;0.40;;;12.70;72.50;;;;;;4962879;28;20034;-62
2023/04/02 10:12:47;;;;;;;0.80;0.80;;;12.70;72.00;;;;;;4963137;28;20042;-62
2023/04/02 10:15:22;;;;;;;0.43;0.40;;;12.80;72.60;;;;;;4962054;28;20522;-62
2023/04/02 10:17:58;;;;;;;0.10;0.10;;;13.00;72.30;;;;;;4962405;28;20141;-61
2023/04/02 10:20:27;;;;;;;0.70;0.57;;;13.10;70.70;;;;;;4963230;28;20070;-62
2023/04/02 10:22:52;;;;;;;2.15;1.10;;;13.20;70.40;;;;;;4962544;28;20061;-62
2023/04/02 10:25:22;;;;;;;2.90;2.13;;;13.20;70.60;;;;;;4962064;28;20070;-62
2023/04/02 10:27:54;;;;;;;0.82;0.63;;;13.30;70.20;;;;;;4962551;28;20039;-62
2023/04/02 10:30:43;;;;;;;0.60;0.40;;;13.40;69.40;;;;;;4962745;28;20074;-62
2023/04/02 10:33:21;;;;;;;0.60;0.40;;;13.50;68.90;;;;;;4955714;28;20047;-62
2023/04/02 10:35:55;;;;;;;0.80;0.40;;;13.40;67.50;;;;;;4962784;28;20043;-62
2023/04/02 10:38:59;;;;;;;0.40;0.30;;;13.50;67.80;;;;;;4962525;28;20039;-62
2023/04/02 10:41:34;;;;;;;2.13;0.28;;;13.40;67.70;;;;;;4942661;28;20503;-62
2023/04/02 10:44:22;;;;;;;0.45;0.40;;;13.30;68.60;;;;;;4960904;28;20098;-62
2023/04/02 10:47:05;;;;;;;0.43;0.40;;;13.30;67.90;;;;;;4959891;28;20197;-63
2023/04/02 10:50:00;;;;;;;0.30;0.30;;;13.20;68.00;;;;;;4961247;28;20059;-62
2023/04/02 10:52:44;;;;;;;0.37;0.30;;;13.20;68.20;;;;;;4960128;28;20118;-61
2023/04/02 10:55:20;;;;;;;0.30;0.30;;;13.10;68.70;;;;;;4960495;28;20278;-62
2023/04/02 10:57:46;;;;;;;0.90;0.50;;;13.10;68.60;;;;;;4960007;28;20046;-61
2023/04/02 11:00:17;;;;;;;0.40;0.40;;;13.10;69.20;;;;;;4960757;28;20043;-63
2023/04/02 11:03:05;;;;;;;0.63;0.35;;;13.10;69.60;;;;;;4959516;28;20057;-62
2023/04/02 11:05:42;;;;;;;0.50;0.40;;;13.10;68.00;;;;;;4958581;28;20043;-61
2023/04/02 11:08:19;;;;;;;0.30;0.30;;;13.10;69.30;;;;;;4961215;28;20152;-61
2023/04/02 11:11:08;;;;;;;0.57;0.40;;;13.10;69.20;;;;;;4958568;28;20058;-62
2023/04/02 11:13:51;;;;;;;0.82;0.30;;;13.10;67.90;;;;;;4955152;28;20046;-61
2023/04/02 11:16:17;;;;;;;0.45;0.40;;;13.10;68.00;;;;;;4961569;28;20042;-61
2023/04/02 11:19:21;;;;;;;0.30;0.30;;;13.20;69.00;;;;;;4960966;28;20039;-62
2023/04/02 11:22:01;;;;;;;0.20;0.20;;;13.20;67.10;;;;;;4961923;28;20047;-62
2023/04/02 11:24:32;;;;;;;0.40;0.30;;;13.20;67.60;;;;;;4961388;28;20526;-62
2023/04/02 11:27:10;;;;;;;0.22;0.20;;;13.20;68.10;;;;;;4962447;28;20042;-61
2023/04/02 11:30:07;;;;;;;0.52;0.28;;;13.20;67.80;;;;;;4960709;28;20485;-62
2023/04/02 11:32:37;;;;;;;0.47;0.32;;;13.20;68.50;;;;;;4921417;28;20038;-63
2023/04/02 11:35:29;;;;;;;0.75;0.20;;;13.30;69.00;;;;;;4960761;28;20589;-62
2023/04/02 11:37:57;;;;;;;0.57;0.40;;;13.30;67.90;;;;;;4960334;28;20081;-62
2023/04/02 11:40:43;;;;;;;0.70;0.20;;;13.40;68.80;;;;;;4959829;28;20042;-62
2023/04/02 11:43:48;;;;;;;0.30;0.20;;;13.40;67.10;;;;;;4959248;28;20035;-63
2023/04/02 11:46:29;;;;;;;0.60;0.30;;;13.50;67.50;;;;;;4915873;29;20119;-61
2023/04/02 11:49:34;;;;;;;0.65;0.20;;;13.50;67.40;;;;;;4955763;28;20049;-62
2023/04/02 11:52:01;;;;;;;0.20;0.20;;;13.60;67.60;;;;;;4961266;28;20527;-62
2023/04/02 11:54:32;;;;;;;1.27;0.30;;;13.60;68.60;;;;;;4962022;28;20495;-62
2023/04/02 11:57:25;;;;;;;0.50;0.50;;;13.70;68.80;;;;;;4960033;28;20138;-62
2023/04/02 12:00:03;;;;;;;0.85;0.45;;;13.80;68.80;;;;;;4960888;28;20038;-63
2023/04/02 12:02:54;;;;;;;0.40;0.25;;;14.10;68.60;;;;;;4959585;28;20053;-62
2023/04/02 12:05:35;;;;;;;0.43;0.40;;;14.00;68.10;;;;;;4958671;28;20027;-62
2023/04/02 12:08:45;;;;;;;1.15;0.43;;;14.10;67.80;;;;;;4959097;28;20039;-62
2023/04/02 12:11:12;;;;;;;0.50;0.50;;;14.20;66.90;;;;;;4959748;28;20122;-62
2023/04/02 12:13:38;;;;;;;0.50;0.30;;;14.30;68.00;;;;;;4960573;28;20078;-61
2023/04/02 12:16:05;;;;;;;0.35;0.35;;;14.40;67.50;;;;;;4958509;28;20047;-61
2023/04/02 12:18:31;;;;;;;0.32;0.20;;;14.40;67.00;;;;;;4960389;28;20065;-62
2023/04/02 12:20:57;;;;;;;0.82;0.38;;;14.50;66.00;;;;;;4960275;28;20035;-62
2023/04/02 12:23:31;;;;;;;0.90;0.40;;;14.50;66.30;;;;;;4961088;28;20039;-62
2023/04/02 12:26:00;;;;;;;0.25;0.22;;;14.50;65.60;;;;;;4959435;28;20074;-62
2023/04/02 12:28:27;;;;;;;0.35;0.30;;;14.60;64.00;;;;;;4958450;28;20122;-62
2023/04/02 12:31:08;;;;;;;0.38;0.30;;;14.50;63.60;;;;;;4959711;28;20051;-62
2023/04/02 12:33:38;;;;;;;0.28;0.10;;;14.50;64.60;;;;;;4958951;28;20470;-62
2023/04/02 12:36:10;;;;;;;1.27;0.28;;;14.30;65.50;;;;;;4958632;28;20038;-61
2023/04/02 12:38:56;;;;;;;0.35;0.30;;;14.10;66.40;;;;;;4958690;28;20039;-63
2023/04/02 12:41:26;;;;;;;0.75;0.30;;;14.00;67.70;;;;;;4959317;28;20602;-63
2023/04/02 12:44:00;;;;;;;0.20;0.20;;;13.80;68.60;;;;;;4960242;28;20039;-62
2023/04/02 12:46:27;;;;;;;1.95;0.20;;;13.60;67.80;;;;;;4958369;28;20078;-62
2023/04/02 12:49:03;;;;;;;0.63;0.20;;;13.30;68.40;;;;;;4957623;28;20096;-63
2023/04/02 12:51:29;;;;;;;0.73;0.20;;;13.20;69.60;;;;;;4959464;28;21609;-62
2023/04/02 12:53:56;;;;;;;0.10;0.10;;;13.00;70.70;;;;;;4958488;28;20082;-63
2023/04/02 12:56:23;;;;;;;0.77;0.25;;;12.90;71.30;;;;;;4959591;28;20050;-62
2023/04/02 12:58:56;;;;;;;0.80;0.28;;;12.70;72.00;;;;;;4958149;28;20041;-62
2023/04/02 13:01:26;;;;;;;0.25;0.15;;;12.70;73.00;;;;;;4958783;28;20352;-62
2023/04/02 13:04:06;;;;;;;1.08;0.30;;;12.50;72.80;;;;;;4958429;28;20038;-61
2023/04/02 13:06:34;;;;;;;0.22;0.20;;;12.30;74.00;;;;;;4958678;28;20110;-62
2023/04/02 13:09:02;;;;;;;0.20;0.20;;;12.20;74.00;;;;;;4958431;28;20035;-63
2023/04/02 13:11:40;;;;;;;0.20;0.20;;;12.10;74.50;;;;;;4959192;28;20329;-61
2023/04/02 13:14:15;;;;;;;0.10;0.10;;;12.00;76.10;;;;;;4955716;28;20125;-61
2023/04/02 13:16:41;;;;;;;0.10;0.10;;;11.90;76.30;;;;;;4959684;28;20027;-62
2023/04/02 13:19:31;;;;;;;1.60;0.15;;;11.90;76.20;;;;;;4958397;28;20042;-62
2023/04/02 13:21:59;;;;;;;0.68;0.20;;;11.80;76.60;;;;;;4959103;28;20035;-62
2023/04/02 13:24:27;;;;;;;0.22;0.20;;;11.80;77.00;;;;;;4960365;28;20058;-62
2023/04/02 13:26:55;;;;;;;0.30;0.10;;;11.80;75.80;;;;;;4960187;28;20038;-61
2023/04/02 13:29:27;;;;;;;0.00;0.00;;;11.80;76.00;;;;;;4958150;28;20041;-61